Time;durP1;ratioP1;P1;durP2;ratioP2;P2;SDS_P1;SDS_P2;PMS_P1;PMS_P2;Temp;Humidity;BMP_temperature;BMP_pressure;BME280_temperature;BME280_humidity;BME280_pressure;Samples;Min_cycle;Max_cycle;Signal;HPM_P1;HPM_P2
2022/01/28 00:02:51;;;;;;;11.60;2.40;;;;;;;5.34;77.96;102945.00;5013739;28;20121;-61
2022/01/28 00:05:22;;;;;;;17.77;2.83;;;;;;;5.33;77.32;102952.78;5013705;28;20422;-61
2022/01/28 00:07:51;;;;;;;13.30;2.28;;;;;;;5.33;77.74;102958.03;5013951;28;20041;-61
2022/01/28 00:10:19;;;;;;;11.52;2.47;;;;;;;5.30;77.83;102961.34;5013876;28;20144;-61
2022/01/28 00:13:05;;;;;;;13.45;2.30;;;;;;;5.30;77.32;102963.97;5013643;28;20037;-61
2022/01/28 00:37:23;;;;;;;10.63;2.25;;;;;;;5.37;78.19;102983.63;5013625;28;20041;-61
2022/01/28 00:39:49;;;;;;;12.25;2.20;;;;;;;5.37;77.65;102976.69;5013374;28;20026;-61
2022/01/28 00:42:15;;;;;;;13.90;2.13;;;;;;;5.37;78.20;102976.69;5013112;28;20427;-61
2022/01/28 00:44:41;;;;;;;12.18;2.47;;;;;;;5.33;78.02;102979.00;5013156;28;20030;-61
2022/01/28 00:47:06;;;;;;;9.50;2.70;;;;;;;5.32;77.63;102977.19;5013231;28;20068;-61
2022/01/28 00:49:32;;;;;;;9.52;2.05;;;;;;;5.33;78.54;102972.03;5013055;28;20113;-61
2022/01/28 00:51:57;;;;;;;9.18;2.40;;;;;;;5.30;78.35;102963.97;5013357;28;20022;-61
2022/01/28 00:54:23;;;;;;;8.65;2.50;;;;;;;5.32;77.98;102977.19;5013302;28;20508;-61
2022/01/28 00:56:48;;;;;;;10.98;2.20;;;;;;;5.28;77.64;102981.31;5013289;28;20510;-61
2022/01/28 00:59:14;;;;;;;11.55;2.67;;;;;;;5.26;78.35;102988.16;5013216;28;20045;-61
2022/01/28 01:01:43;;;;;;;12.48;2.30;;;;;;;5.20;78.00;102978.19;5013156;28;20036;-61
2022/01/28 01:04:08;;;;;;;11.10;2.35;;;;;;;5.20;78.46;102974.66;5012951;28;20510;-61
2022/01/28 01:06:34;;;;;;;7.32;1.80;;;;;;;5.19;78.35;102983.31;5013144;28;20057;-61
2022/01/28 01:09:00;;;;;;;8.52;2.28;;;;;;;5.18;78.52;102989.34;5013098;28;20030;-61
2022/01/28 01:11:27;;;;;;;11.05;2.28;;;;;;;5.20;78.92;102985.13;5013249;28;20029;-62
2022/01/28 01:13:53;;;;;;;13.52;2.05;;;;;;;5.16;78.23;102981.41;5012892;28;20026;-61
2022/01/28 01:16:27;;;;;;;10.02;2.55;;;;;;;5.15;78.17;102978.69;5013030;28;20033;-61
2022/01/28 01:19:11;;;;;;;11.18;2.50;;;;;;;5.15;78.43;102982.22;4995585;28;20391;-61
2022/01/28 01:21:40;;;;;;;15.30;3.03;;;;;;;5.14;78.15;102984.69;5012923;28;20041;-61
2022/01/28 01:24:08;;;;;;;15.55;2.30;;;;;;;5.13;78.48;102991.66;5012983;28;20022;-61
2022/01/28 01:26:37;;;;;;;9.82;2.10;;;;;;;5.16;78.42;102986.63;5012772;28;20026;-61
2022/01/28 01:29:07;;;;;;;11.38;2.60;;;;;;;5.16;79.13;102985.72;5012704;28;20034;-60
2022/01/28 01:31:32;;;;;;;13.75;2.60;;;;;;;5.17;79.39;102991.06;5012759;28;20042;-61
2022/01/28 01:34:19;;;;;;;10.32;2.30;;;;;;;5.16;78.72;102994.50;5012854;28;20034;-61
2022/01/28 01:36:44;;;;;;;8.98;2.47;;;;;;;5.17;79.10;103004.16;5012743;28;20427;-61
2022/01/28 01:39:14;;;;;;;12.73;2.40;;;;;;;5.19;79.00;103009.53;5012878;28;20034;-61
2022/01/28 01:41:41;;;;;;;12.95;2.63;;;;;;;5.17;78.54;103012.03;5012737;28;20029;-61
2022/01/28 01:44:24;;;;;;;12.88;2.40;;;;;;;5.18;78.48;103019.13;5012773;28;20037;-61
2022/01/28 01:52:35;;;;;;;13.30;2.20;;;;;;;5.18;78.54;103033.91;5012793;28;20116;-61
2022/01/28 01:55:01;;;;;;;13.43;2.38;;;;;;;5.20;78.69;103032.31;5015019;28;20481;-61
2022/01/28 01:57:26;;;;;;;13.80;2.28;;;;;;;5.18;78.83;103052.25;5016140;28;20450;-61
2022/01/28 01:59:51;;;;;;;12.75;2.15;;;;;;;5.18;78.75;103049.63;5016001;28;20029;-61
2022/01/28 02:02:17;;;;;;;13.10;2.30;;;;;;;5.18;79.54;103061.03;5015892;28;20033;-61
2022/01/28 02:04:42;;;;;;;12.32;2.20;;;;;;;5.20;78.80;103055.91;5015872;28;20022;-61
2022/01/28 02:07:08;;;;;;;12.48;3.15;;;;;;;5.17;78.77;103056.59;5015918;28;20109;-61
2022/01/28 02:09:33;;;;;;;10.73;2.20;;;;;;;5.18;78.30;103058.44;5015966;28;20029;-60
2022/01/28 02:11:59;;;;;;;13.75;2.47;;;;;;;5.19;78.79;103061.94;5015831;28;20026;-61
2022/01/28 02:14:24;;;;;;;13.80;2.35;;;;;;;5.17;78.90;103059.22;5015842;28;20044;-61
2022/01/28 02:16:50;;;;;;;11.20;2.08;;;;;;;5.21;79.85;103073.44;5015527;28;20029;-62
2022/01/28 02:19:15;;;;;;;12.48;2.35;;;;;;;5.23;79.53;103069.22;5015610;28;20072;-61
2022/01/28 02:21:47;;;;;;;15.27;2.08;;;;;;;5.21;79.09;103078.66;5015672;28;20037;-61
2022/01/28 02:24:16;;;;;;;7.28;2.08;;;;;;;5.23;79.45;103070.13;5015655;28;20030;-61
2022/01/28 02:26:42;;;;;;;11.35;2.00;;;;;;;5.20;79.33;103063.75;5015854;28;20414;-61
2022/01/28 02:29:13;;;;;;;15.02;2.80;;;;;;;5.19;79.17;103073.34;5015442;28;20026;-61
2022/01/28 02:31:39;;;;;;;14.18;2.28;;;;;;;5.16;78.90;103078.38;5015205;28;20544;-61
2022/01/28 02:34:06;;;;;;;12.57;2.40;;;;;;;5.16;79.71;103080.97;5015472;28;20117;-61
2022/01/28 02:36:32;;;;;;;9.02;2.13;;;;;;;5.18;79.71;103078.47;5015379;28;20517;-61
2022/01/28 02:39:01;;;;;;;8.75;1.92;;;;;;;5.19;79.26;103077.69;5015367;28;20018;-60
2022/01/28 02:41:31;;;;;;;9.40;2.08;;;;;;;5.20;79.42;103076.88;5015444;28;20030;-61
2022/01/28 02:47:03;;;;;;;8.77;2.10;;;;;;;5.20;79.61;103083.00;4954989;29;20027;-61
2022/01/28 02:49:34;;;;;;;16.38;2.10;;;;;;;5.23;79.93;103084.94;4954733;29;20039;-61
2022/01/28 02:52:01;;;;;;;11.23;2.53;;;;;;;5.26;79.69;103098.25;4954714;29;20066;-61
2022/01/28 02:54:26;;;;;;;13.23;2.03;;;;;;;5.24;79.37;103100.75;4954756;29;20041;-61
2022/01/28 02:56:57;;;;;;;12.93;2.20;;;;;;;5.27;79.59;103100.09;4954585;29;20035;-61
2022/01/28 02:59:23;;;;;;;15.65;2.10;;;;;;;5.26;79.78;103104.38;4954497;29;20035;-61
2022/01/28 03:01:48;;;;;;;10.48;2.67;;;;;;;5.27;79.49;103110.56;4954644;29;20031;-61
2022/01/28 03:04:35;;;;;;;11.15;2.10;;;;;;;5.27;80.50;103105.31;4954268;28;20117;-60
2022/01/28 03:06:59;;;;;;;13.07;2.08;;;;;;;5.27;79.67;103115.81;4954262;29;20166;-60
2022/01/28 03:09:24;;;;;;;13.40;2.20;;;;;;;5.25;79.53;103115.69;4954240;29;20449;-61
2022/01/28 03:12:12;;;;;;;11.13;2.50;;;;;;;5.24;80.16;103108.63;4954436;29;20517;-60
2022/01/28 03:14:54;;;;;;;12.00;2.17;;;;;;;5.26;80.26;103108.72;4954277;29;20031;-61
2022/01/28 03:19:55;;;;;;;11.70;1.77;;;;;;;5.30;80.47;103113.38;5014456;28;20037;-61
2022/01/28 03:22:23;;;;;;;15.40;2.10;;;;;;;5.34;80.56;103117.13;5014544;28;20034;-60
2022/01/28 03:24:51;;;;;;;12.15;2.30;;;;;;;5.37;81.32;103115.63;5014541;28;20030;-61
2022/01/28 03:27:34;;;;;;;15.52;2.70;;;;;;;5.38;81.16;103114.81;5014421;28;20026;-61
2022/01/28 03:29:59;;;;;;;;;;;;;;;5.42;80.83;103115.94;5014606;28;20141;-61
2022/01/28 03:32:24;;;;;;;13.07;2.08;;;;;;;5.44;81.78;103117.88;5014222;28;19963;-61
2022/01/28 03:34:50;;;;;;;10.30;2.17;;;;;;;5.44;81.64;103111.72;5014405;28;20475;-61
2022/01/28 03:37:15;;;;;;;14.43;2.85;;;;;;;5.47;81.93;103112.81;5014527;28;20345;-61
2022/01/28 03:39:41;;;;;;;11.30;2.38;;;;;;;5.47;81.75;103118.06;5014466;28;20030;-61
2022/01/28 03:42:06;;;;;;;17.55;2.80;;;;;;;5.49;81.55;103126.94;5014278;28;20388;-61
2022/01/28 03:44:32;;;;;;;17.00;2.50;;;;;;;5.49;81.69;103121.72;5014042;28;20099;-61
2022/01/28 03:46:57;;;;;;;10.18;1.92;;;;;;;5.53;82.21;103130.69;5014143;28;20057;-61
2022/01/28 03:49:23;;;;;;;11.63;2.35;;;;;;;5.49;81.57;103120.81;4996266;28;20048;-61
2022/01/28 03:51:49;;;;;;;12.98;2.45;;;;;;;5.47;81.50;103127.63;5014065;28;20394;-61
2022/01/28 03:54:14;;;;;;;9.73;2.00;;;;;;;5.46;81.91;103131.97;5013967;28;20101;-61
2022/01/28 03:56:39;;;;;;;9.10;2.10;;;;;;;5.44;81.80;103130.06;4996440;28;20105;-61
2022/01/28 03:59:05;;;;;;;15.23;2.08;;;;;;;5.42;81.32;103131.66;5013745;28;20113;-61
2022/01/28 04:01:35;;;;;;;11.07;2.30;;;;;;;5.40;81.51;103135.91;4996324;28;20048;-60
2022/01/28 04:04:36;;;;;;;18.95;2.90;;;;;;;5.37;81.08;103136.59;5013597;28;20029;-61
2022/01/28 04:12:13;;;;;;;8.52;2.33;;;;;;;5.28;81.63;103149.06;5013587;28;20061;-60
2022/01/28 04:15:05;;;;;;;11.55;2.10;;;;;;;5.23;81.64;103142.63;5013850;28;20476;-60
2022/01/28 04:17:24;;;;;;;10.63;2.45;;;;;;;5.19;81.63;103146.72;5011943;28;20180;-60
2022/01/28 04:19:51;;;;;;;9.77;2.40;;;;;;;5.18;81.78;103146.59;5013525;28;20051;-61
2022/01/28 04:22:17;;;;;;;7.28;1.98;;;;;;;5.15;81.97;103144.69;5013672;28;20025;-60
2022/01/28 04:24:43;;;;;;;10.18;1.92;;;;;;;5.13;81.69;103141.03;5013768;28;20061;-60
2022/01/28 04:27:08;;;;;;;9.60;2.20;;;;;;;5.13;82.19;103142.75;5013423;28;20034;-61
2022/01/28 04:29:34;;;;;;;12.27;2.00;;;;;;;5.13;82.27;103142.75;5013256;28;20418;-60
2022/01/28 04:32:00;;;;;;;10.77;1.92;;;;;;;5.10;82.26;103140.84;5013353;28;20085;-60
2022/01/28 04:34:25;;;;;;;19.98;2.60;;;;;;;5.08;82.22;103142.44;5013223;28;20042;-61
2022/01/28 04:39:30;;;;;;;12.95;2.28;;;;;;;4.98;82.64;103159.22;5013394;28;20483;-60
2022/01/28 04:44:46;;;;;;;8.25;1.85;;;;;;;5.05;83.50;103170.13;5013385;28;20030;-61
2022/01/28 04:47:20;;;;;;;11.60;2.10;;;;;;;5.06;83.22;103165.03;5013396;28;20025;-61
2022/01/28 05:00:17;;;;;;;11.85;2.05;;;;;;;5.00;82.43;103175.03;5013130;28;20484;-61
2022/01/28 05:27:00;;;;;;;10.50;1.92;;;;;;;4.98;82.52;103203.78;4952447;29;20031;-60
2022/01/28 05:29:26;;;;;;;10.43;2.35;;;;;;;4.92;82.25;103213.78;4955527;28;20421;-60
2022/01/28 05:31:51;;;;;;;6.53;1.90;;;;;;;4.89;82.53;103212.69;4955876;29;20090;-60
2022/01/28 05:34:17;;;;;;;8.77;1.95;;;;;;;4.85;83.29;103208.94;4955908;29;20126;-61
2022/01/28 05:36:43;;;;;;;7.45;2.00;;;;;;;4.86;83.10;103209.84;4956018;29;20039;-61
2022/01/28 05:39:09;;;;;;;11.82;2.40;;;;;;;4.82;82.77;103220.91;4956006;29;20059;-60
2022/01/28 05:41:34;;;;;;;10.35;2.20;;;;;;;4.81;82.46;103224.31;4955994;29;20031;-60
2022/01/28 05:44:02;;;;;;;14.40;2.45;;;;;;;4.77;82.97;103231.03;4956154;29;20023;-60
2022/01/28 05:46:28;;;;;;;8.63;2.28;;;;;;;4.78;82.69;103220.66;4955936;29;20035;-60
2022/01/28 05:48:55;;;;;;;9.45;2.60;;;;;;;4.75;83.51;103222.16;4955497;29;20481;-61
2022/01/28 05:51:21;;;;;;;8.73;2.35;;;;;;;4.66;83.32;103226.72;4955780;29;20460;-61
2022/01/28 05:53:46;;;;;;;12.98;3.00;;;;;;;4.62;83.31;103238.69;4955624;28;20031;-61
2022/01/28 05:56:11;;;;;;;9.95;2.97;;;;;;;4.63;83.85;103243.13;4939651;29;20051;-61
2022/01/28 05:58:36;;;;;;;12.98;2.30;;;;;;;4.63;83.55;103237.91;4955754;29;20097;-60
2022/01/28 06:01:02;;;;;;;9.85;2.60;;;;;;;4.63;84.07;103245.75;4979509;28;20556;-61
2022/01/28 06:03:28;;;;;;;11.85;2.90;;;;;;;4.62;83.61;103256.09;5016166;28;20026;-60
2022/01/28 06:05:53;;;;;;;8.80;2.40;;;;;;;4.61;83.14;103249.97;5015787;28;20527;-60
2022/01/28 06:08:18;;;;;;;12.93;2.40;;;;;;;4.59;84.14;103255.91;5016037;28;20034;-61
2022/01/28 06:10:44;;;;;;;11.70;2.60;;;;;;;4.56;83.64;103266.13;5015938;28;20025;-61
2022/01/28 06:13:11;;;;;;;9.00;2.38;;;;;;;4.53;83.55;103257.25;5015755;28;20045;-60
2022/01/28 06:15:41;;;;;;;14.02;2.42;;;;;;;4.53;84.41;103265.09;5015857;28;20025;-60
2022/01/28 06:18:06;;;;;;;8.00;2.38;;;;;;;4.50;83.31;103263.97;5015809;28;20072;-61
2022/01/28 06:20:32;;;;;;;9.60;2.50;;;;;;;4.49;83.45;103265.66;5015406;28;20487;-61
2022/01/28 06:22:57;;;;;;;10.85;2.60;;;;;;;4.49;83.03;103264.75;5015590;28;20494;-61
2022/01/28 06:26:18;;;;;;;12.50;2.63;;;;;;;4.49;83.18;103283.09;5015823;28;20108;-60
2022/01/28 06:28:44;;;;;;;13.73;2.78;;;;;;;4.43;83.50;103283.53;5015432;28;20022;-61
2022/01/28 06:31:10;;;;;;;17.40;3.20;;;;;;;4.39;83.98;103291.97;5015117;28;20096;-61
2022/01/28 06:33:36;;;;;;;11.35;2.78;;;;;;;4.34;83.46;103292.44;5015649;28;20109;-61
2022/01/28 06:36:02;;;;;;;13.68;2.90;;;;;;;4.33;83.81;103307.22;5015453;28;20105;-60
2022/01/28 06:38:27;;;;;;;15.52;2.78;;;;;;;4.38;83.50;103302.34;5015337;28;20030;-60
2022/01/28 06:40:53;;;;;;;14.77;2.60;;;;;;;4.37;83.09;103303.09;5014636;28;20022;-60
2022/01/28 06:43:18;;;;;;;8.30;2.70;;;;;;;4.28;82.75;103321.63;5015227;28;20129;-60
2022/01/28 06:45:43;;;;;;;9.80;2.30;;;;;;;4.16;82.46;103336.44;5015171;28;20519;-61
2022/01/28 06:48:10;;;;;;;16.92;2.90;;;;;;;4.14;83.16;103322.31;5015125;28;20029;-60
2022/01/28 06:50:43;;;;;;;10.43;2.80;;;;;;;4.15;83.27;103330.25;5015042;28;20034;-60
2022/01/28 06:53:10;;;;;;;15.27;3.47;;;;;;;4.11;81.99;103335.13;5015358;28;20025;-60
2022/01/28 06:55:36;;;;;;;10.30;2.90;;;;;;;3.98;81.91;103333.28;5015169;28;20037;-60
2022/01/28 06:58:03;;;;;;;9.25;2.58;;;;;;;3.89;82.42;103340.41;5014937;28;20030;-61
2022/01/28 07:00:30;;;;;;;10.52;2.47;;;;;;;3.94;83.39;103346.91;5014686;28;20064;-61
2022/01/28 07:02:55;;;;;;;10.20;2.85;;;;;;;3.88;82.91;103344.75;5014896;28;20033;-60
2022/01/28 07:05:21;;;;;;;16.30;2.88;;;;;;;3.77;82.21;103340.41;5014661;28;20068;-61
2022/01/28 07:07:47;;;;;;;9.45;2.85;;;;;;;3.81;82.89;103359.81;5014818;28;20499;-60
2022/01/28 07:10:12;;;;;;;15.20;3.35;;;;;;;3.80;83.17;103360.63;5014697;28;20084;-60
2022/01/28 07:12:38;;;;;;;6.13;2.65;;;;;;;3.82;83.43;103367.81;5014694;28;20026;-60
2022/01/28 07:15:04;;;;;;;13.43;3.13;;;;;;;3.84;83.05;103371.44;5014381;28;20113;-61
2022/01/28 07:17:29;;;;;;;13.02;3.38;;;;;;;3.82;83.69;103373.03;5014614;28;20026;-60
2022/01/28 07:19:54;;;;;;;15.32;3.40;;;;;;;3.83;84.00;103377.47;5014478;28;20113;-60
2022/01/28 07:22:20;;;;;;;12.10;3.15;;;;;;;3.84;83.70;103363.59;5014617;28;20026;-60
2022/01/28 07:24:45;;;;;;;11.02;3.33;;;;;;;3.82;83.56;103364.28;5014453;28;20467;-60
2022/01/28 07:27:11;;;;;;;18.48;3.47;;;;;;;3.76;83.45;103367.31;5014681;28;20533;-60
2022/01/28 07:29:36;;;;;;;17.90;3.25;;;;;;;3.72;83.90;103380.94;5014156;28;20033;-60
2022/01/28 07:32:02;;;;;;;10.85;3.00;;;;;;;3.79;84.80;103385.88;5014090;28;20072;-60
2022/01/28 07:34:27;;;;;;;8.65;3.33;;;;;;;3.87;84.49;103389.09;5014202;28;20026;-60
2022/01/28 07:36:53;;;;;;;11.35;3.05;;;;;;;3.92;84.44;103385.13;5014347;28;20117;-60
2022/01/28 07:39:18;;;;;;;15.15;3.45;;;;;;;3.94;84.13;103389.72;5014340;28;20030;-60
2022/01/28 07:41:43;;;;;;;14.40;3.63;;;;;;;3.87;83.41;103404.78;5014218;28;20068;-60
2022/01/28 07:44:09;;;;;;;15.45;3.90;;;;;;;3.83;84.10;103403.63;5014055;28;20045;-60
2022/01/28 07:46:35;;;;;;;12.30;3.10;;;;;;;3.85;84.69;103402.03;5013990;28;20036;-61
2022/01/28 07:49:00;;;;;;;15.68;3.50;;;;;;;3.87;83.94;103402.19;5014030;28;20464;-60
2022/01/28 07:51:26;;;;;;;8.20;3.65;;;;;;;3.88;84.41;103407.50;5013119;28;20030;-60
2022/01/28 07:53:51;;;;;;;9.23;3.35;;;;;;;3.92;84.28;103406.06;5014138;28;20053;-59
2022/01/28 07:56:17;;;;;;;10.32;3.40;;;;;;;3.87;83.76;103403.09;5014022;28;20036;-60
2022/01/28 07:58:42;;;;;;;12.10;3.28;;;;;;;3.89;83.69;103405.81;5013844;28;20041;-61
2022/01/28 08:01:08;;;;;;;15.73;3.47;;;;;;;3.91;83.47;103401.63;5013724;28;20033;-61
2022/01/28 08:03:35;;;;;;;16.40;4.13;;;;;;;3.94;83.40;103409.69;5013969;28;20053;-61
2022/01/28 08:06:00;;;;;;;12.18;3.55;;;;;;;3.95;83.77;103411.53;5013775;28;20104;-60
2022/01/28 08:08:25;;;;;;;11.73;3.80;;;;;;;3.91;83.87;103417.31;5013674;28;20113;-60
2022/01/28 08:10:51;;;;;;;12.52;3.75;;;;;;;3.92;84.19;103421.75;5013684;28;20033;-60
2022/01/28 08:13:17;;;;;;;20.83;4.70;;;;;;;4.12;84.94;103421.63;5013775;28;20069;-60
2022/01/28 08:15:43;;;;;;;21.75;3.80;;;;;;;4.36;84.83;103430.44;5013710;28;20037;-60
2022/01/28 08:18:09;;;;;;;12.75;3.70;;;;;;;4.52;83.14;103430.84;5013449;28;20380;-60
2022/01/28 08:20:35;;;;;;;17.38;3.20;;;;;;;4.60;81.84;103433.16;5013540;28;20030;-60
2022/01/28 08:23:02;;;;;;;11.65;3.30;;;;;;;4.70;82.18;103444.44;5013511;28;20364;-60
2022/01/28 08:25:29;;;;;;;13.85;3.60;;;;;;;4.87;82.44;103450.94;5013735;28;20030;-60
2022/01/28 08:27:55;;;;;;;14.23;3.83;;;;;;;5.12;82.08;103458.97;5013445;28;20026;-60
2022/01/28 08:30:23;;;;;;;9.95;3.17;;;;;;;5.39;81.82;103453.94;5013103;28;20025;-61
2022/01/28 08:32:49;;;;;;;12.90;3.45;;;;;;;5.67;81.32;103460.41;5013448;28;20021;-61
2022/01/28 08:35:16;;;;;;;13.27;3.85;;;;;;;5.91;80.87;103449.84;4995662;28;20383;-60
2022/01/28 08:37:42;;;;;;;12.45;4.28;;;;;;;6.22;80.35;103458.22;5013527;28;20036;-60
2022/01/28 08:40:10;;;;;;;14.50;3.70;;;;;;;6.52;79.29;103454.22;5013455;28;20109;-61
2022/01/28 08:42:36;;;;;;;12.68;3.83;;;;;;;6.70;77.43;103465.97;5013450;28;20025;-60
2022/01/28 08:45:03;;;;;;;16.58;4.13;;;;;;;6.87;77.19;103463.59;5013261;28;20040;-61
2022/01/28 08:47:28;;;;;;;17.00;4.05;;;;;;;7.08;76.93;103465.03;5013154;28;20049;-61
2022/01/28 08:49:53;;;;;;;16.63;4.18;;;;;;;7.30;74.87;103450.69;5013082;28;20408;-61
2022/01/28 08:52:19;;;;;;;18.60;4.30;;;;;;;7.54;73.83;103454.94;5013253;28;20103;-61
2022/01/28 08:54:44;;;;;;;16.33;3.85;;;;;;;7.84;75.02;103461.25;5013248;28;20502;-61
2022/01/28 08:57:09;;;;;;;16.10;4.00;;;;;;;7.98;72.56;103467.38;5013111;28;20022;-61
2022/01/28 08:59:36;;;;;;;11.68;3.88;;;;;;;8.35;72.26;103457.44;5013079;28;20303;-61
2022/01/28 09:02:02;;;;;;;13.75;3.80;;;;;;;8.67;71.21;103455.88;5013138;28;20022;-61
2022/01/28 09:04:27;;;;;;;11.93;3.45;;;;;;;8.90;70.96;103465.16;5016720;28;20061;-62
2022/01/28 09:06:52;;;;;;;11.25;3.40;;;;;;;9.07;69.81;103456.50;5017104;28;20021;-61
2022/01/28 09:09:19;;;;;;;9.45;3.50;;;;;;;9.23;69.10;103455.69;5017083;28;20120;-61
2022/01/28 09:12:07;;;;;;;16.55;3.95;;;;;;;9.28;67.61;103464.78;5017063;28;20080;-61
2022/01/28 09:14:33;;;;;;;14.10;3.63;;;;;;;9.50;68.40;103451.06;5016965;28;20026;-61
2022/01/28 09:16:58;;;;;;;14.75;3.47;;;;;;;9.74;67.59;103459.50;5016764;28;20037;-61
2022/01/28 09:19:24;;;;;;;13.85;3.60;;;;;;;9.91;66.59;103458.69;5016788;28;20029;-61
2022/01/28 09:21:51;;;;;;;13.30;3.70;;;;;;;10.16;66.51;103455.66;5016830;28;20060;-61
2022/01/28 09:24:16;;;;;;;13.63;3.92;;;;;;;10.42;66.65;103450.91;5016857;28;20026;-61
2022/01/28 09:26:41;;;;;;;11.15;3.70;;;;;;;10.50;64.95;103450.47;5016698;28;20048;-61
2022/01/28 09:29:08;;;;;;;13.85;3.78;;;;;;;10.73;64.82;103453.41;5016595;28;20026;-61
2022/01/28 09:31:33;;;;;;;14.60;3.78;;;;;;;10.89;64.78;103463.06;5016261;28;20411;-61
2022/01/28 09:33:59;;;;;;;12.90;4.07;;;;;;;11.12;63.50;103458.94;5016541;28;20487;-61
2022/01/28 09:36:24;;;;;;;12.80;3.72;;;;;;;11.26;63.14;103466.75;5016575;28;20022;-61
2022/01/28 09:38:50;;;;;;;14.77;4.03;;;;;;;11.54;62.90;103463.69;5016437;28;20084;-61
2022/01/28 09:41:16;;;;;;;14.48;4.03;;;;;;;11.63;61.43;103459.69;5016778;28;20026;-62
2022/01/28 09:43:46;;;;;;;15.15;4.75;;;;;;;11.71;61.61;103463.63;5016345;28;20021;-62
2022/01/28 09:46:12;;;;;;;12.93;4.05;;;;;;;12.13;62.19;103464.78;5016315;28;20113;-62
2022/01/28 09:48:39;;;;;;;14.35;4.10;;;;;;;12.27;60.36;103465.41;5016314;28;20022;-61
2022/01/28 09:51:05;;;;;;;19.98;4.22;;;;;;;12.35;59.84;103471.06;5016192;28;20026;-62
2022/01/28 09:53:30;;;;;;;14.73;4.13;;;;;;;12.08;60.65;103468.97;5016319;28;20499;-61
2022/01/28 09:55:57;;;;;;;14.95;4.07;;;;;;;11.84;61.39;103476.66;5016223;28;20058;-61
2022/01/28 09:58:23;;;;;;;16.10;4.28;;;;;;;11.65;62.37;103489.78;5016239;28;20037;-61
2022/01/28 10:00:48;;;;;;;17.63;4.35;;;;;;;11.49;62.67;103497.00;5016309;28;20025;-62
2022/01/28 10:03:16;;;;;;;16.83;4.78;;;;;;;11.63;63.50;103488.81;5016024;28;20029;-62
2022/01/28 10:05:43;;;;;;;13.75;4.28;;;;;;;11.64;63.42;103490.63;4998324;28;20022;-61
2022/01/28 10:08:19;;;;;;;15.18;4.10;;;;;;;11.57;62.78;103483.25;5015857;28;20030;-62
2022/01/28 10:11:14;;;;;;;13.20;4.50;;;;;;;11.62;64.06;103482.63;5016195;28;20037;-61
2022/01/28 10:13:49;;;;;;;15.50;4.65;;;;;;;11.73;62.71;103488.41;5015663;28;20053;-62
2022/01/28 10:16:19;;;;;;;16.90;4.28;;;;;;;12.03;63.48;103487.28;5015013;28;20041;-61
2022/01/28 10:19:17;;;;;;;24.25;4.15;;;;;;;12.36;63.22;103489.69;5016139;28;20061;-61
2022/01/28 10:21:45;;;;;;;12.20;4.07;;;;;;;12.56;61.04;103493.25;4936167;29;20051;-61
2022/01/28 10:24:24;;;;;;;16.38;4.53;;;;;;;12.70;62.60;103486.78;4936030;29;20124;-62
2022/01/28 10:26:55;;;;;;;17.20;4.10;;;;;;;12.70;60.52;103486.78;4936090;29;20079;-61
2022/01/28 10:29:31;;;;;;;18.65;4.65;;;;;;;12.95;60.81;103491.44;4936191;29;20393;-62
2022/01/28 10:31:59;;;;;;;16.25;4.20;;;;;;;13.02;59.80;103489.97;4935887;29;20044;-61
2022/01/28 10:34:34;;;;;;;18.15;4.40;;;;;;;13.11;59.35;103493.00;4935761;29;20437;-62
2022/01/28 10:37:10;;;;;;;15.60;4.07;;;;;;;13.57;59.61;103489.63;4935779;29;20031;-62
2022/01/28 10:39:44;;;;;;;12.27;3.97;;;;;;;13.97;57.95;103491.25;4935775;29;20071;-61
2022/01/28 10:42:13;;;;;;;18.25;3.97;;;;;;;14.05;56.99;103487.13;4935787;29;20062;-61
2022/01/28 10:44:59;;;;;;;21.35;4.68;;;;;;;14.13;58.92;103498.97;4935726;29;20046;-61
2022/01/28 10:47:42;;;;;;;12.00;3.65;;;;;;;14.04;56.42;103488.84;4935678;29;20094;-61
2022/01/28 10:50:28;;;;;;;13.85;4.05;;;;;;;14.12;58.56;103486.50;4935541;29;20126;-61
2022/01/28 10:52:56;;;;;;;13.70;3.78;;;;;;;14.16;56.03;103487.53;4935655;29;20434;-61
2022/01/28 10:55:22;;;;;;;15.32;4.20;;;;;;;14.16;55.99;103482.22;4935631;29;20067;-62
2022/01/28 10:57:56;;;;;;;17.13;4.50;;;;;;;14.24;57.45;103479.00;4965111;28;20125;-61
2022/01/28 11:00:24;;;;;;;13.20;4.43;;;;;;;14.35;56.10;103474.09;5015049;28;20041;-61
2022/01/28 11:02:49;;;;;;;16.38;3.63;;;;;;;14.75;53.92;103476.47;5015024;28;20085;-61
2022/01/28 11:05:15;;;;;;;13.20;3.38;;;;;;;15.00;53.38;103475.59;5014858;28;20049;-61
2022/01/28 11:07:41;;;;;;;15.52;3.58;;;;;;;15.18;51.52;103469.06;5014901;28;20495;-61
2022/01/28 11:10:06;;;;;;;13.77;3.08;;;;;;;15.55;51.46;103471.19;5014719;28;20030;-61
2022/01/28 11:12:32;;;;;;;17.40;3.58;;;;;;;15.85;50.72;103465.06;5014721;28;20383;-61
2022/01/28 11:14:58;;;;;;;13.65;3.90;;;;;;;15.82;49.89;103465.88;5014808;28;20030;-61
2022/01/28 11:17:23;;;;;;;12.05;3.40;;;;;;;15.72;50.39;103463.78;5014701;28;20050;-61
2022/01/28 11:19:52;;;;;;;14.38;3.72;;;;;;;15.67;50.29;103452.97;5014595;28;20026;-61
2022/01/28 11:22:54;;;;;;;18.65;3.60;;;;;;;15.79;51.50;103447.09;5014658;28;20037;-61
2022/01/28 11:25:27;;;;;;;13.37;3.20;;;;;;;16.10;51.39;103450.69;4915995;29;20056;-61
2022/01/28 11:27:52;;;;;;;16.40;3.90;;;;;;;16.23;50.30;103432.44;4916079;29;20044;-62
2022/01/28 11:30:28;;;;;;;14.25;3.47;;;;;;;16.49;47.94;103418.94;4915903;29;20043;-61
2022/01/28 11:33:08;;;;;;;10.70;2.80;;;;;;;16.61;47.07;103418.31;4915767;29;20064;-61
2022/01/28 11:35:49;;;;;;;12.93;3.55;;;;;;;16.88;47.24;103419.09;4915628;29;20506;-61
2022/01/28 11:38:26;;;;;;;11.32;3.20;;;;;;;17.23;48.58;103424.44;4915650;29;20205;-60
2022/01/28 11:40:59;;;;;;;14.43;3.42;;;;;;;17.35;44.63;103415.81;4915572;29;20032;-61
2022/01/28 11:43:27;;;;;;;10.18;3.30;;;;;;;17.44;44.98;103416.94;4915213;29;20040;-61
2022/01/28 11:46:09;;;;;;;14.50;3.40;;;;;;;16.94;46.66;103410.34;4915176;29;20048;-61
2022/01/28 11:48:55;;;;;;;12.30;3.70;;;;;;;16.72;48.55;103415.13;4915229;28;20040;-61
2022/01/28 11:51:32;;;;;;;11.57;3.50;;;;;;;16.33;48.30;103417.59;4915522;29;20120;-60
2022/01/28 11:53:58;;;;;;;9.05;3.08;;;;;;;16.47;46.66;103415.28;4915525;28;20036;-61
2022/01/28 11:56:24;;;;;;;11.95;3.40;;;;;;;16.52;45.89;103409.19;4915358;29;20032;-61
2022/01/28 11:59:09;;;;;;;10.68;3.08;;;;;;;16.57;48.24;103413.78;4915638;29;20596;-61
2022/01/28 12:01:40;;;;;;;11.80;3.10;;;;;;;16.38;46.94;103409.69;4963376;28;20422;-61
2022/01/28 12:04:27;;;;;;;10.55;2.55;;;;;;;16.04;47.93;103414.06;5013809;28;20037;-60
2022/01/28 12:07:03;;;;;;;9.75;3.20;;;;;;;15.80;48.64;103419.56;5013635;28;20483;-61
2022/01/28 12:09:30;;;;;;;10.98;3.45;;;;;;;15.60;47.77;103410.94;5013948;28;20076;-61
2022/01/28 12:11:58;;;;;;;10.23;3.00;;;;;;;15.69;47.37;103419.25;5013957;28;20467;-60
2022/01/28 12:14:52;;;;;;;12.48;3.25;;;;;;;15.51;49.74;103422.22;5013734;28;20030;-61
2022/01/28 12:17:30;;;;;;;12.07;2.80;;;;;;;15.26;47.80;103408.97;5013647;28;20034;-61
2022/01/28 12:20:19;;;;;;;10.60;2.95;;;;;;;15.00;49.18;103403.69;5013802;28;20034;-61
2022/01/28 12:23:00;;;;;;;13.07;3.25;;;;;;;15.16;48.63;103401.50;5013607;28;20053;-61
2022/01/28 12:25:40;;;;;;;13.75;2.90;;;;;;;15.61;48.19;103393.19;5013555;28;20034;-61
2022/01/28 12:28:16;;;;;;;17.23;3.22;;;;;;;15.87;46.58;103381.56;5013351;28;20472;-60
2022/01/28 12:30:47;;;;;;;9.32;2.80;;;;;;;16.27;45.24;103374.69;5013398;28;20084;-61
2022/01/28 12:33:14;;;;;;;15.82;3.28;;;;;;;16.32;43.96;103370.41;5013608;28;20037;-60
2022/01/28 12:35:41;;;;;;;8.68;2.75;;;;;;;16.19;43.52;103366.50;5013384;28;20522;-60
2022/01/28 12:38:07;;;;;;;11.27;3.33;;;;;;;16.51;46.13;103361.13;5012937;28;20112;-61
2022/01/28 12:40:36;;;;;;;12.32;3.20;;;;;;;16.75;45.49;103361.81;5013259;28;20061;-60
2022/01/28 12:43:06;;;;;;;10.55;3.05;;;;;;;17.01;44.06;103359.78;5013505;28;20116;-60
2022/01/28 12:45:32;;;;;;;7.60;2.65;;;;;;;16.98;42.67;103349.03;5013323;28;20422;-60
2022/01/28 12:47:59;;;;;;;9.70;2.63;;;;;;;16.71;42.31;103357.22;5013385;28;20030;-61
2022/01/28 12:50:27;;;;;;;17.30;2.80;;;;;;;16.35;42.49;103350.91;5013068;28;20021;-61
2022/01/28 12:52:53;;;;;;;9.88;2.60;;;;;;;15.99;43.09;103352.59;5013214;28;20041;-60